createdAt,value
2023-04-18T00:04:50.810Z,10.34
2023-04-18T00:14:53.961Z,10.09
2023-04-18T00:24:58.752Z,9.88
2023-04-18T00:35:02.258Z,9.76
2023-04-18T00:45:08.307Z,9.69
2023-04-18T00:55:11.951Z,9.55
2023-04-18T01:05:17.630Z,9.33
2023-04-18T01:15:20.508Z,9.22
2023-04-18T01:25:24.980Z,8.99
2023-04-18T01:35:28.332Z,8.98
2023-04-18T01:45:33.810Z,8.86
2023-04-18T01:55:38.007Z,8.67
2023-04-18T02:05:43.688Z,8.56
2023-04-18T02:15:46.618Z,8.46
2023-04-18T02:25:52.489Z,8.36
2023-04-18T02:35:55.896Z,8.20
2023-04-18T02:45:59.993Z,8.01
2023-04-18T02:56:04.038Z,8.10
2023-04-18T03:06:28.409Z,7.88
2023-04-18T03:16:33.087Z,7.83
2023-04-18T03:26:39.580Z,7.68
2023-04-18T03:36:43.572Z,7.57
2023-04-18T03:46:49.515Z,7.47
2023-04-18T03:56:52.664Z,7.28
2023-04-18T04:06:58.039Z,7.21
2023-04-18T04:17:01.443Z,7.18
2023-04-18T04:27:08.808Z,6.76
2023-04-18T04:37:14.223Z,6.81
2023-04-18T04:47:37.421Z,6.88
2023-04-18T04:57:40.877Z,6.52
2023-04-18T05:08:01.834Z,6.58
2023-04-18T05:18:05.385Z,6.86
2023-04-18T05:28:10.677Z,7.24
2023-04-18T05:38:14.530Z,7.47
2023-04-18T05:48:19.106Z,8.09
2023-04-18T05:58:22.138Z,8.46
2023-04-18T06:08:26.961Z,8.72
2023-04-18T06:18:29.938Z,9.20
2023-04-18T06:28:36.512Z,9.38
2023-04-18T06:38:39.642Z,9.53
2023-04-18T06:48:43.926Z,9.70
2023-04-18T06:58:47.143Z,9.91
2023-04-18T07:08:53.953Z,10.26
2023-04-18T07:18:57.765Z,10.21
2023-04-18T07:29:02.244Z,10.65
2023-04-18T07:39:05.503Z,10.50
2023-04-18T07:49:09.811Z,10.84
2023-04-18T07:59:13.418Z,10.90
2023-04-18T08:09:19.414Z,11.27
2023-04-18T08:19:23.779Z,11.04
2023-04-18T08:29:27.996Z,10.69
2023-04-18T08:39:31.308Z,10.59
2023-04-18T08:49:36.352Z,10.75
2023-04-18T08:59:40.588Z,10.69
2023-04-18T09:09:47.476Z,10.71
2023-04-18T09:19:51.101Z,11.04
2023-04-18T09:29:57.819Z,11.00
2023-04-18T09:40:01.655Z,11.01
2023-04-18T09:50:07.735Z,11.34
2023-04-18T10:00:17.763Z,12.01
2023-04-18T10:10:23.140Z,12.78
2023-04-18T10:20:27.092Z,13.19
2023-04-18T10:30:54.498Z,12.45
2023-04-18T10:41:31.646Z,12.33
2023-04-18T10:51:36.080Z,12.85
2023-04-18T11:01:39.384Z,13.06
2023-04-18T11:11:44.681Z,13.69
2023-04-18T11:21:48.746Z,13.67
2023-04-18T11:31:57.481Z,13.30
2023-04-18T11:42:01.559Z,13.38
2023-04-18T11:52:13.151Z,13.41
2023-04-18T12:02:17.264Z,13.32
2023-04-18T12:12:21.817Z,13.28
2023-04-18T12:22:43.174Z,13.80
2023-04-18T12:32:50.795Z,13.91
2023-04-18T12:42:55.861Z,14.46
2023-04-18T13:15:31.043Z,15.00
2023-04-18T13:25:35.616Z,14.68
2023-04-18T13:35:38.796Z,15.60
2023-04-18T13:45:43.265Z,15.77
2023-04-18T13:55:47.413Z,15.64
2023-04-18T14:05:52.215Z,15.40
2023-04-18T14:15:55.437Z,15.14
2023-04-18T14:26:00.006Z,15.19
2023-04-18T14:36:03.158Z,14.97
2023-04-18T14:46:13.794Z,15.21
2023-04-18T14:56:20.968Z,15.03
2023-04-18T15:06:25.736Z,14.82
2023-04-18T15:16:28.829Z,14.98
2023-04-18T15:26:33.340Z,14.82
2023-04-18T15:36:36.869Z,15.12
2023-04-18T15:46:41.451Z,14.89
2023-04-18T15:56:44.863Z,14.79
2023-04-18T16:06:49.443Z,14.95
2023-04-18T16:16:53.827Z,15.02
2023-04-18T16:26:58.638Z,14.93
2023-04-18T16:37:01.719Z,14.99
2023-04-18T16:47:08.436Z,14.93
2023-04-18T16:57:12.550Z,14.96
2023-04-18T17:07:16.729Z,14.92
2023-04-18T17:17:19.643Z,14.88
2023-04-18T17:27:24.118Z,14.85
2023-04-18T17:37:27.262Z,14.86
2023-04-18T17:47:33.618Z,14.70
2023-04-18T17:57:37.325Z,14.60
2023-04-18T18:07:43.871Z,14.39
2023-04-18T18:17:49.810Z,14.34
2023-04-18T18:27:54.674Z,14.20
2023-04-18T18:37:57.853Z,14.13
2023-04-18T18:48:03.858Z,13.95
2023-04-18T18:58:07.878Z,13.97
2023-04-18T19:08:12.386Z,13.87
2023-04-18T19:18:15.417Z,13.77
2023-04-18T19:28:19.903Z,13.75
2023-04-18T19:38:22.953Z,13.68
2023-04-18T19:48:27.986Z,13.57
2023-04-18T19:58:38.114Z,13.76
2023-04-18T20:08:42.937Z,13.76
2023-04-18T20:18:47.324Z,13.73
2023-04-18T20:28:52.472Z,13.54
2023-04-18T20:38:55.575Z,13.55
2023-04-18T20:48:59.875Z,13.49
2023-04-18T20:59:04.764Z,13.42
2023-04-18T21:09:09.665Z,13.49
2023-04-18T21:19:12.897Z,13.32
2023-04-18T21:29:17.503Z,13.59
2023-04-18T21:39:20.695Z,13.45
2023-04-18T21:49:24.966Z,13.31
2023-04-18T21:59:28.331Z,13.34
2023-04-18T22:09:36.342Z,13.20
2023-04-18T22:19:39.758Z,13.35
2023-04-18T22:29:44.188Z,13.16
2023-04-18T22:39:47.098Z,13.35
2023-04-18T22:49:51.903Z,13.03
2023-04-18T22:59:54.845Z,13.04
2023-04-18T23:09:59.607Z,13.16
2023-04-18T23:20:02.726Z,12.95
2023-04-18T23:30:08.888Z,12.91
2023-04-18T23:40:12.158Z,12.76
2023-04-18T23:50:16.561Z,12.84
